Time;durP1;ratioP1;P1;durP2;ratioP2;P2;SDS_P1;SDS_P2;PMS_P1;PMS_P2;Temp;Humidity;BMP_temperature;BMP_pressure;BME280_temperature;BME280_humidity;BME280_pressure;Samples;Min_cycle;Max_cycle;Signal;HPM_P1;HPM_P2
2022/03/24 00:00:40;;;;;;;76.28;57.50;;;;;;;;;;5101144;28;20067;-77
2022/03/24 00:03:08;;;;;;;82.60;60.83;;;;;;;;;;5102106;28;20052;-77
2022/03/24 00:05:36;;;;;;;79.30;60.25;;;;;;;;;;5102592;28;20047;-77
2022/03/24 00:08:05;;;;;;;82.75;61.00;;;;;;;;;;5102695;28;20125;-77
2022/03/24 00:10:32;;;;;;;84.47;62.88;;;;;;;;;;5104108;28;20092;-77
2022/03/24 00:12:59;;;;;;;79.28;58.40;;;;;;;;;;5103785;28;20056;-77
2022/03/24 00:15:27;;;;;;;86.15;64.70;;;;;;;;;;5104160;28;20129;-77
2022/03/24 00:17:54;;;;;;;88.90;66.32;;;;;;;;;;5100375;28;20055;-78
2022/03/24 00:20:24;;;;;;;88.25;63.97;;;;;;;;;;5120852;28;20142;-77
2022/03/24 00:22:53;;;;;;;82.75;63.30;;;;;;;;;;5103624;28;20046;-77
2022/03/24 00:25:21;;;;;;;82.47;64.03;;;;;;;;;;5100862;28;20459;-77
2022/03/24 00:27:48;;;;;;;87.07;64.90;;;;;;;;;;5103441;28;20066;-77
2022/03/24 00:30:15;;;;;;;85.22;64.57;;;;;;;;;;5101953;28;20063;-77
2022/03/24 00:32:42;;;;;;;83.97;63.08;;;;;;;;;;5104095;28;20059;-77
2022/03/24 00:35:10;;;;;;;87.72;66.22;;;;;;;;;;5103215;28;20051;-77
2022/03/24 00:37:37;;;;;;;88.20;65.47;;;;;;;;;;5103869;28;20048;-77
2022/03/24 00:40:07;;;;;;;86.65;64.60;;;;;;;;;;5102784;28;20055;-77
2022/03/24 00:42:36;;;;;;;85.65;64.63;;;;;;;;;;5104546;28;20526;-77
2022/03/24 00:45:04;;;;;;;86.70;66.20;;;;;;;;;;5097678;28;20060;-77
2022/03/24 00:47:34;;;;;;;92.85;67.63;;;;;;;;;;5101832;28;20048;-77
2022/03/24 00:50:01;;;;;;;99.38;70.25;;;;;;;;;;5102500;28;20132;-77
2022/03/24 00:52:28;;;;;;;91.65;68.28;;;;;;;;;;5104796;28;20059;-77
2022/03/24 00:54:56;;;;;;;91.03;67.57;;;;;;;;;;5103965;28;20238;-77
2022/03/24 00:57:24;;;;;;;92.55;68.80;;;;;;;;;;5103711;28;20046;-77
2022/03/24 00:59:51;;;;;;;92.32;68.18;;;;;;;;;;5102658;28;20048;-77
2022/03/24 01:02:18;;;;;;;90.32;68.25;;;;;;;;;;5099729;28;20063;-77
2022/03/24 01:04:46;;;;;;;94.68;69.97;;;;;;;;;;5104540;28;20101;-77
2022/03/24 01:07:13;;;;;;;92.25;70.40;;;;;;;;;;5108034;28;20058;-77
2022/03/24 01:09:40;;;;;;;95.38;65.78;;;;;;;;;;5107116;28;20444;-77
2022/03/24 01:12:08;;;;;;;100.20;70.70;;;;;;;;;;5105744;28;20055;-77
2022/03/24 01:14:37;;;;;;;98.10;70.55;;;;;;;;;;5106799;28;20047;-77
2022/03/24 01:17:05;;;;;;;96.32;70.15;;;;;;;;;;5105154;28;20234;-77
2022/03/24 01:19:33;;;;;;;91.90;67.82;;;;;;;;;;5108364;27;20048;-77
2022/03/24 01:22:01;;;;;;;98.82;69.97;;;;;;;;;;5120688;27;20134;-77
2022/03/24 01:24:29;;;;;;;97.20;70.43;;;;;;;;;;5106929;28;20055;-77
2022/03/24 01:26:56;;;;;;;94.18;67.95;;;;;;;;;;5101181;28;20075;-77
2022/03/24 01:29:23;;;;;;;98.28;69.63;;;;;;;;;;5103766;28;20071;-77
2022/03/24 01:31:52;;;;;;;99.65;71.32;;;;;;;;;;5105151;28;20116;-77
2022/03/24 01:34:19;;;;;;;100.38;71.97;;;;;;;;;;5104558;28;20059;-77
2022/03/24 01:36:46;;;;;;;97.38;69.82;;;;;;;;;;5106567;28;20052;-77
2022/03/24 01:39:13;;;;;;;101.97;73.85;;;;;;;;;;5106613;28;20047;-77
2022/03/24 01:41:41;;;;;;;106.05;77.07;;;;;;;;;;5106321;28;20059;-77
2022/03/24 01:44:12;;;;;;;102.88;73.43;;;;;;;;;;5102860;28;20078;-77
2022/03/24 01:46:40;;;;;;;114.18;79.95;;;;;;;;;;5102767;28;20063;-77
2022/03/24 01:49:08;;;;;;;104.00;75.07;;;;;;;;;;5106737;28;20044;-77
2022/03/24 01:51:36;;;;;;;112.85;80.93;;;;;;;;;;5102793;28;20151;-77
2022/03/24 01:54:03;;;;;;;120.95;81.72;;;;;;;;;;5105280;28;20048;-77
2022/03/24 01:56:30;;;;;;;107.45;74.53;;;;;;;;;;5105351;28;20043;-77
2022/03/24 01:58:58;;;;;;;105.70;71.75;;;;;;;;;;5104564;27;20052;-77
2022/03/24 02:01:30;;;;;;;104.75;73.95;;;;;;;;;;5109633;27;20513;-76
2022/03/24 02:03:58;;;;;;;115.57;81.88;;;;;;;;;;5105805;28;20108;-77
2022/03/24 02:06:26;;;;;;;121.82;82.35;;;;;;;;;;5104260;28;20061;-77
2022/03/24 02:08:55;;;;;;;124.00;82.65;;;;;;;;;;5102702;28;21144;-77
2022/03/24 02:11:22;;;;;;;114.63;76.53;;;;;;;;;;5097538;28;20112;-76
2022/03/24 02:13:49;;;;;;;122.93;80.78;;;;;;;;;;5101132;28;20894;-76
2022/03/24 02:16:17;;;;;;;110.68;74.40;;;;;;;;;;5098572;28;20072;-76
2022/03/24 02:18:44;;;;;;;114.22;77.40;;;;;;;;;;5100091;28;20043;-76
2022/03/24 02:21:12;;;;;;;117.25;79.95;;;;;;;;;;5098761;28;20202;-76
2022/03/24 02:23:42;;;;;;;114.82;78.88;;;;;;;;;;5100430;28;20185;-76
2022/03/24 02:26:10;;;;;;;118.03;77.38;;;;;;;;;;5105746;28;20048;-76
2022/03/24 02:28:38;;;;;;;121.10;80.25;;;;;;;;;;5098628;28;20052;-76
2022/03/24 02:31:05;;;;;;;119.68;80.60;;;;;;;;;;5101659;28;20051;-76
2022/03/24 02:33:32;;;;;;;118.50;78.28;;;;;;;;;;5099782;27;20074;-76
2022/03/24 02:36:00;;;;;;;121.50;80.25;;;;;;;;;;5104618;27;20143;-76
2022/03/24 02:38:27;;;;;;;107.32;73.00;;;;;;;;;;5106139;27;20048;-76
2022/03/24 02:40:56;;;;;;;114.03;78.20;;;;;;;;;;5101941;27;20712;-76
2022/03/24 02:43:24;;;;;;;124.68;81.70;;;;;;;;;;5104418;28;20090;-76
2022/03/24 02:45:53;;;;;;;115.60;78.47;;;;;;;;;;5118929;27;20134;-76
2022/03/24 02:48:21;;;;;;;116.10;76.03;;;;;;;;;;5103871;28;20082;-76
2022/03/24 02:50:49;;;;;;;109.68;75.93;;;;;;;;;;5101603;28;20050;-76
2022/03/24 02:53:16;;;;;;;114.28;74.30;;;;;;;;;;5105275;28;20051;-76
2022/03/24 02:55:43;;;;;;;120.28;79.05;;;;;;;;;;5103432;28;20047;-76
2022/03/24 02:58:12;;;;;;;114.78;77.40;;;;;;;;;;5105320;28;20047;-76
2022/03/24 03:00:39;;;;;;;107.55;73.05;;;;;;;;;;5100798;28;20055;-76
2022/03/24 03:03:06;;;;;;;96.20;65.80;;;;;;;;;;5103842;28;20056;-76
2022/03/24 03:05:35;;;;;;;102.30;69.03;;;;;;;;;;5103166;28;20108;-76
2022/03/24 03:08:02;;;;;;;106.28;71.85;;;;;;;;;;5105292;27;20052;-76
2022/03/24 03:10:29;;;;;;;106.25;71.55;;;;;;;;;;5100612;27;20047;-76
2022/03/24 03:12:57;;;;;;;103.55;69.80;;;;;;;;;;5100457;28;20133;-76
2022/03/24 03:15:26;;;;;;;101.60;67.07;;;;;;;;;;5104057;28;20180;-76
2022/03/24 03:17:53;;;;;;;104.35;70.68;;;;;;;;;;5103157;28;20036;-76
2022/03/24 03:20:21;;;;;;;113.30;72.22;;;;;;;;;;5104996;28;20059;-77
2022/03/24 03:22:50;;;;;;;120.10;75.38;;;;;;;;;;5101515;28;20059;-77
2022/03/24 03:25:17;;;;;;;116.00;75.25;;;;;;;;;;5098627;28;20202;-77
2022/03/24 03:27:44;;;;;;;102.53;66.88;;;;;;;;;;5099915;28;20048;-77
2022/03/24 03:30:12;;;;;;;109.45;71.75;;;;;;;;;;5104661;28;20059;-77
2022/03/24 03:32:41;;;;;;;107.45;68.95;;;;;;;;;;5104138;28;20134;-77
2022/03/24 03:35:08;;;;;;;115.53;72.82;;;;;;;;;;5102741;28;20043;-76
2022/03/24 03:37:38;;;;;;;117.97;71.28;;;;;;;;;;5100275;28;20088;-76
2022/03/24 03:40:05;;;;;;;99.15;65.95;;;;;;;;;;5101188;28;20062;-76
2022/03/24 03:42:32;;;;;;;104.22;66.53;;;;;;;;;;5095092;28;20494;-76
2022/03/24 03:45:00;;;;;;;105.22;67.97;;;;;;;;;;5099596;27;20081;-76
2022/03/24 03:47:28;;;;;;;99.70;63.70;;;;;;;;;;5104683;27;20043;-76
2022/03/24 03:49:57;;;;;;;99.65;64.30;;;;;;;;;;5105295;28;20382;-76
2022/03/24 03:52:24;;;;;;;112.30;71.55;;;;;;;;;;5106341;27;20116;-76
2022/03/24 03:54:52;;;;;;;106.10;68.90;;;;;;;;;;5098345;28;20071;-76
2022/03/24 03:57:19;;;;;;;100.10;65.30;;;;;;;;;;5102304;28;20089;-76
2022/03/24 03:59:46;;;;;;;98.13;64.13;;;;;;;;;;5099224;28;20059;-76
2022/03/24 04:02:14;;;;;;;100.78;65.32;;;;;;;;;;5101971;28;20043;-76
2022/03/24 04:04:41;;;;;;;100.82;65.10;;;;;;;;;;5103062;28;20055;-76
2022/03/24 04:07:10;;;;;;;104.22;65.07;;;;;;;;;;5103023;28;20043;-76
2022/03/24 04:09:37;;;;;;;96.25;61.30;;;;;;;;;;5099990;28;20554;-76
2022/03/24 04:12:05;;;;;;;117.57;70.68;;;;;;;;;;5099895;28;20520;-77
2022/03/24 04:14:32;;;;;;;103.93;65.72;;;;;;;;;;5101239;28;20054;-77
2022/03/24 04:17:00;;;;;;;96.75;60.70;;;;;;;;;;5103007;28;20043;-77
2022/03/24 04:19:27;;;;;;;89.10;56.78;;;;;;;;;;5100883;28;20112;-77
2022/03/24 04:21:54;;;;;;;80.85;51.97;;;;;;;;;;5102741;28;20048;-76
2022/03/24 04:24:23;;;;;;;103.63;64.60;;;;;;;;;;5105083;28;20062;-76
2022/03/24 04:26:50;;;;;;;93.18;57.58;;;;;;;;;;5103538;28;20051;-76
2022/03/24 04:29:17;;;;;;;79.20;50.53;;;;;;;;;;5104767;28;20056;-76
2022/03/24 04:31:45;;;;;;;90.47;55.22;;;;;;;;;;5103742;28;20058;-76
2022/03/24 04:34:12;;;;;;;93.20;56.50;;;;;;;;;;5098293;28;20164;-76
2022/03/24 04:36:40;;;;;;;91.40;56.70;;;;;;;;;;5099790;28;20048;-76
2022/03/24 04:39:07;;;;;;;89.80;54.60;;;;;;;;;;5107631;28;20047;-76
2022/03/24 04:41:36;;;;;;;85.82;53.97;;;;;;;;;;5102354;28;20051;-76
2022/03/24 04:44:03;;;;;;;79.85;49.50;;;;;;;;;;5105897;28;20101;-76
2022/03/24 04:46:30;;;;;;;78.78;49.75;;;;;;;;;;5106138;28;20058;-76
2022/03/24 04:48:57;;;;;;;73.72;45.72;;;;;;;;;;5107791;28;20524;-76
2022/03/24 04:51:25;;;;;;;67.57;43.85;;;;;;;;;;5108106;28;20150;-76
2022/03/24 04:53:53;;;;;;;57.60;38.67;;;;;;;;;;5107181;28;20059;-76
2022/03/24 04:56:20;;;;;;;58.53;37.97;;;;;;;;;;5105407;28;20121;-76
2022/03/24 04:58:49;;;;;;;64.40;42.15;;;;;;;;;;5107108;28;20060;-76
2022/03/24 05:01:16;;;;;;;64.32;42.75;;;;;;;;;;5110708;27;20162;-76
2022/03/24 05:03:46;;;;;;;67.30;44.78;;;;;;;;;;5104705;27;20048;-76
2022/03/24 05:06:13;;;;;;;69.60;46.28;;;;;;;;;;5107619;28;20055;-76
2022/03/24 05:08:41;;;;;;;57.83;38.63;;;;;;;;;;5106631;28;20047;-76
2022/03/24 05:11:08;;;;;;;66.32;43.13;;;;;;;;;;5099152;28;20055;-76
2022/03/24 05:13:35;;;;;;;75.45;48.75;;;;;;;;;;5101044;28;20151;-76
2022/03/24 05:16:04;;;;;;;72.00;45.80;;;;;;;;;;5105934;28;20720;-76
2022/03/24 05:18:32;;;;;;;66.43;44.08;;;;;;;;;;5104558;28;20051;-76
2022/03/24 05:20:59;;;;;;;69.53;45.85;;;;;;;;;;5105090;28;20047;-76
2022/03/24 05:23:27;;;;;;;76.07;46.92;;;;;;;;;;5106790;28;20043;-76
2022/03/24 05:25:54;;;;;;;73.00;46.35;;;;;;;;;;5106090;28;20044;-76
2022/03/24 05:28:21;;;;;;;78.32;48.45;;;;;;;;;;5107278;28;20150;-76
2022/03/24 05:30:49;;;;;;;82.25;48.58;;;;;;;;;;5104552;28;20056;-76
2022/03/24 05:33:17;;;;;;;65.57;42.75;;;;;;;;;;5105730;28;20837;-76
2022/03/24 05:35:44;;;;;;;80.22;47.00;;;;;;;;;;5105722;28;20051;-76
2022/03/24 05:38:12;;;;;;;76.32;45.88;;;;;;;;;;5106907;28;20047;-76
2022/03/24 05:40:40;;;;;;;79.38;49.88;;;;;;;;;;5099846;28;20159;-76
2022/03/24 05:43:07;;;;;;;76.97;50.83;;;;;;;;;;5106612;28;20058;-76
2022/03/24 05:45:34;;;;;;;85.32;52.60;;;;;;;;;;5105537;27;20120;-76
2022/03/24 05:48:01;;;;;;;82.97;51.47;;;;;;;;;;5106032;28;20051;-76
2022/03/24 05:50:31;;;;;;;76.90;46.53;;;;;;;;;;5106970;28;20055;-76
2022/03/24 05:52:58;;;;;;;63.60;41.85;;;;;;;;;;5101443;28;20495;-76
2022/03/24 05:55:26;;;;;;;62.42;40.95;;;;;;;;;;5105640;28;20047;-76
2022/03/24 05:57:53;;;;;;;72.13;42.80;;;;;;;;;;5105749;28;20100;-76
2022/03/24 06:00:21;;;;;;;64.20;40.33;;;;;;;;;;5104667;28;20063;-76
2022/03/24 06:02:49;;;;;;;65.65;39.92;;;;;;;;;;5104290;28;20108;-76
2022/03/24 06:05:17;;;;;;;62.65;39.78;;;;;;;;;;5106470;28;20059;-76
2022/03/24 06:07:46;;;;;;;68.25;40.58;;;;;;;;;;5104257;28;20051;-76
2022/03/24 06:10:13;;;;;;;68.70;43.22;;;;;;;;;;5102325;28;20567;-76
2022/03/24 06:12:41;;;;;;;87.38;52.80;;;;;;;;;;5103218;28;20052;-76
2022/03/24 06:15:09;;;;;;;102.88;58.33;;;;;;;;;;5110604;27;20060;-76
2022/03/24 06:17:36;;;;;;;96.88;59.00;;;;;;;;;;5101257;27;20044;-76
2022/03/24 06:20:04;;;;;;;103.68;57.53;;;;;;;;;;5100360;27;20159;-76
2022/03/24 06:22:31;;;;;;;82.53;49.47;;;;;;;;;;5092764;28;20140;-76
2022/03/24 06:25:00;;;;;;;73.07;46.92;;;;;;;;;;5092653;28;20054;-76
2022/03/24 06:27:28;;;;;;;79.15;48.10;;;;;;;;;;5095424;28;20051;-76
2022/03/24 06:29:55;;;;;;;67.15;39.28;;;;;;;;;;5099662;28;20116;-76
2022/03/24 06:32:22;;;;;;;62.35;38.78;;;;;;;;;;5099862;28;20056;-76
2022/03/24 06:34:51;;;;;;;55.83;37.28;;;;;;;;;;5095280;28;20564;-77
2022/03/24 06:37:18;;;;;;;68.72;39.35;;;;;;;;;;5099866;28;20047;-77
2022/03/24 06:39:45;;;;;;;60.30;38.88;;;;;;;;;;5097965;28;20047;-77
2022/03/24 06:42:14;;;;;;;75.47;45.85;;;;;;;;;;5103208;28;20066;-76
2022/03/24 06:44:41;;;;;;;68.63;44.92;;;;;;;;;;5122395;27;20130;-77
2022/03/24 06:47:10;;;;;;;87.22;53.85;;;;;;;;;;5105647;28;20547;-77
2022/03/24 06:49:37;;;;;;;105.97;65.53;;;;;;;;;;5100546;28;20062;-77
2022/03/24 06:52:04;;;;;;;135.30;77.22;;;;;;;;;;5101433;28;20436;-77
2022/03/24 06:54:31;;;;;;;122.07;72.82;;;;;;;;;;5104073;27;20197;-77
2022/03/24 06:56:59;;;;;;;123.40;72.15;;;;;;;;;;5101612;28;20077;-77
2022/03/24 06:59:27;;;;;;;118.80;73.13;;;;;;;;;;5099419;27;20688;-77
2022/03/24 07:01:54;;;;;;;112.90;69.20;;;;;;;;;;5102887;28;20134;-77
2022/03/24 07:04:22;;;;;;;122.93;74.45;;;;;;;;;;5101740;28;20129;-77
2022/03/24 07:06:49;;;;;;;140.43;81.10;;;;;;;;;;5099666;28;20044;-77
2022/03/24 07:09:16;;;;;;;131.52;78.35;;;;;;;;;;5105416;28;20044;-77
2022/03/24 07:11:43;;;;;;;145.05;82.82;;;;;;;;;;5102219;28;20055;-77
2022/03/24 07:14:10;;;;;;;142.27;85.25;;;;;;;;;;5104839;28;20059;-77
2022/03/24 07:16:39;;;;;;;129.57;77.00;;;;;;;;;;5104316;28;20072;-77
2022/03/24 07:19:08;;;;;;;146.73;83.88;;;;;;;;;;5104729;28;20092;-77
2022/03/24 07:21:35;;;;;;;126.50;78.65;;;;;;;;;;5103342;28;20121;-77
2022/03/24 07:24:02;;;;;;;128.10;78.53;;;;;;;;;;5103150;28;20087;-77
2022/03/24 07:26:30;;;;;;;132.95;79.93;;;;;;;;;;5102350;28;20062;-76
2022/03/24 07:28:57;;;;;;;134.57;80.63;;;;;;;;;;5101406;28;20506;-76
2022/03/24 07:31:24;;;;;;;122.20;74.70;;;;;;;;;;5103580;27;20056;-76
2022/03/24 07:33:55;;;;;;;115.70;73.15;;;;;;;;;;5102981;27;20910;-77
2022/03/24 07:36:23;;;;;;;116.85;70.93;;;;;;;;;;5101793;28;20058;-77
2022/03/24 07:38:50;;;;;;;118.10;74.05;;;;;;;;;;5100718;28;20047;-77
2022/03/24 07:41:17;;;;;;;117.38;73.68;;;;;;;;;;5116355;27;20751;-77
2022/03/24 07:43:45;;;;;;;111.47;73.13;;;;;;;;;;5100215;28;20055;-77
2022/03/24 07:46:12;;;;;;;116.53;71.65;;;;;;;;;;5102096;28;20063;-77
2022/03/24 07:48:39;;;;;;;120.38;78.30;;;;;;;;;;5098263;28;20044;-77
2022/03/24 07:51:08;;;;;;;116.90;76.95;;;;;;;;;;5096315;28;20141;-76
2022/03/24 07:53:56;;;;;;;119.05;76.38;;;;;;;;;;5101963;28;21276;-77
2022/03/24 07:56:25;;;;;;;121.97;74.78;;;;;;;;;;5088638;28;20047;-77
2022/03/24 07:58:52;;;;;;;127.13;77.63;;;;;;;;;;5101054;28;20048;-77
2022/03/24 08:01:26;;;;;;;114.85;73.50;;;;;;;;;;5100080;28;20547;-77
2022/03/24 08:03:54;;;;;;;124.35;72.55;;;;;;;;;;5103938;28;20048;-77
2022/03/24 08:06:23;;;;;;;118.15;74.00;;;;;;;;;;5103715;28;20051;-77
2022/03/24 08:08:50;;;;;;;110.40;74.20;;;;;;;;;;5104333;28;20054;-77
2022/03/24 08:11:17;;;;;;;113.90;74.45;;;;;;;;;;5106363;28;20055;-77
2022/03/24 08:13:47;;;;;;;117.85;74.78;;;;;;;;;;5107848;28;20161;-77
2022/03/24 08:16:15;;;;;;;114.65;73.93;;;;;;;;;;5109412;28;20510;-77
2022/03/24 08:18:42;;;;;;;117.03;71.07;;;;;;;;;;5101810;28;20118;-77
2022/03/24 08:21:09;;;;;;;103.25;69.10;;;;;;;;;;5102604;28;20054;-77
2022/03/24 08:23:38;;;;;;;95.45;64.22;;;;;;;;;;5106044;28;20040;-77
2022/03/24 08:26:05;;;;;;;95.70;63.78;;;;;;;;;;5102740;28;20088;-77
2022/03/24 08:28:32;;;;;;;92.97;61.33;;;;;;;;;;5101497;28;20050;-77
2022/03/24 08:30:59;;;;;;;87.57;59.58;;;;;;;;;;5099852;28;20058;-77
2022/03/24 08:33:27;;;;;;;76.43;55.28;;;;;;;;;;5101404;28;20059;-77
2022/03/24 08:35:54;;;;;;;83.65;55.30;;;;;;;;;;5098894;28;20044;-77
2022/03/24 08:38:22;;;;;;;74.75;53.53;;;;;;;;;;5100382;28;20055;-77
2022/03/24 08:40:51;;;;;;;74.15;51.72;;;;;;;;;;5106987;28;20043;-77
2022/03/24 08:43:18;;;;;;;75.78;52.35;;;;;;;;;;5105829;27;20194;-77
2022/03/24 08:45:45;;;;;;;71.63;51.00;;;;;;;;;;5106952;27;20771;-77
2022/03/24 08:48:12;;;;;;;76.40;50.30;;;;;;;;;;5105489;28;20062;-77
2022/03/24 08:50:40;;;;;;;68.93;48.22;;;;;;;;;;5108215;28;20137;-77
2022/03/24 08:53:07;;;;;;;75.18;50.03;;;;;;;;;;5108099;28;20120;-77
2022/03/24 08:55:34;;;;;;;70.85;49.55;;;;;;;;;;5106218;28;20044;-77
2022/03/24 08:58:04;;;;;;;68.38;47.92;;;;;;;;;;5106808;28;20047;-77
2022/03/24 09:00:32;;;;;;;71.88;48.70;;;;;;;;;;5104836;28;20131;-77
2022/03/24 09:02:59;;;;;;;92.25;52.47;;;;;;;;;;5104237;28;20713;-77
2022/03/24 09:05:26;;;;;;;71.60;48.63;;;;;;;;;;5102197;28;20060;-77
2022/03/24 09:07:53;;;;;;;69.90;48.67;;;;;;;;;;5107150;28;20051;-77
2022/03/24 09:10:20;;;;;;;65.75;44.50;;;;;;;;;;5105980;28;20112;-77
2022/03/24 09:12:48;;;;;;;60.58;42.63;;;;;;;;;;5106751;28;20052;-77
2022/03/24 09:15:18;;;;;;;56.20;39.28;;;;;;;;;;5107109;28;20055;-77
2022/03/24 09:17:46;;;;;;;62.65;40.95;;;;;;;;;;5099329;28;20055;-77
2022/03/24 09:20:14;;;;;;;59.28;42.00;;;;;;;;;;5106648;28;20078;-77
2022/03/24 09:22:42;;;;;;;59.92;42.25;;;;;;;;;;5106859;27;20052;-78
2022/03/24 09:25:09;;;;;;;58.17;40.83;;;;;;;;;;5106820;28;20067;-78
2022/03/24 09:27:37;;;;;;;60.50;43.25;;;;;;;;;;5105923;28;20055;-77
2022/03/24 09:30:05;;;;;;;60.00;43.05;;;;;;;;;;5104805;28;20509;-77
2022/03/24 09:32:34;;;;;;;60.97;41.28;;;;;;;;;;5105538;28;20058;-77
2022/03/24 09:35:02;;;;;;;61.63;42.55;;;;;;;;;;5100935;28;20063;-77
2022/03/24 09:37:32;;;;;;;63.90;43.33;;;;;;;;;;5095020;27;20519;-77
2022/03/24 09:40:00;;;;;;;56.10;41.83;;;;;;;;;;5105307;28;20055;-77
2022/03/24 09:42:28;;;;;;;60.70;41.38;;;;;;;;;;5103133;28;20166;-77
2022/03/24 09:44:58;;;;;;;58.63;42.53;;;;;;;;;;5103603;28;20410;-77
2022/03/24 09:47:26;;;;;;;58.70;42.30;;;;;;;;;;5107632;28;20048;-77
2022/03/24 09:49:55;;;;;;;65.82;44.03;;;;;;;;;;5106122;28;20253;-77
2022/03/24 09:52:24;;;;;;;61.75;44.85;;;;;;;;;;5103446;28;20652;-77
2022/03/24 09:54:51;;;;;;;56.10;43.25;;;;;;;;;;5105155;28;20166;-77
2022/03/24 09:57:20;;;;;;;58.25;44.15;;;;;;;;;;5104549;28;20089;-77
2022/03/24 09:59:47;;;;;;;63.63;44.53;;;;;;;;;;5101029;28;20131;-77
2022/03/24 10:02:14;;;;;;;65.57;44.70;;;;;;;;;;5107078;27;20066;-77
2022/03/24 10:04:45;;;;;;;59.05;44.50;;;;;;;;;;5098443;27;20135;-77
2022/03/24 10:07:14;;;;;;;57.95;44.60;;;;;;;;;;5100997;28;20055;-77
2022/03/24 10:09:42;;;;;;;68.18;47.55;;;;;;;;;;5099798;28;20055;-77
2022/03/24 10:12:10;;;;;;;63.70;46.47;;;;;;;;;;5101573;27;20058;-77
2022/03/24 10:14:37;;;;;;;61.03;46.17;;;;;;;;;;5098316;28;20043;-77
2022/03/24 10:17:09;;;;;;;66.47;47.35;;;;;;;;;;5103163;28;20517;-78
2022/03/24 10:19:36;;;;;;;64.50;46.42;;;;;;;;;;5104554;28;20459;-77
2022/03/24 10:22:08;;;;;;;60.97;44.05;;;;;;;;;;5105269;28;20058;-77
2022/03/24 10:24:41;;;;;;;57.08;43.38;;;;;;;;;;5101364;28;20486;-77
2022/03/24 10:27:11;;;;;;;57.08;43.30;;;;;;;;;;5097971;28;20054;-77
2022/03/24 10:29:38;;;;;;;57.92;43.70;;;;;;;;;;5103280;28;20119;-77
2022/03/24 10:32:11;;;;;;;62.15;44.03;;;;;;;;;;5102936;28;20063;-77
2022/03/24 10:34:39;;;;;;;63.53;45.97;;;;;;;;;;5099130;28;20482;-77
2022/03/24 10:37:07;;;;;;;56.83;44.30;;;;;;;;;;5102779;27;20055;-77
2022/03/24 10:39:35;;;;;;;61.38;43.05;;;;;;;;;;5102105;27;20051;-77
2022/03/24 10:42:14;;;;;;;56.78;42.53;;;;;;;;;;5099913;27;20059;-77
2022/03/24 10:44:56;;;;;;;58.70;45.38;;;;;;;;;;5100135;28;20127;-77
2022/03/24 10:47:36;;;;;;;63.40;46.53;;;;;;;;;;5101533;28;20060;-77
2022/03/24 10:50:18;;;;;;;61.72;45.15;;;;;;;;;;5098751;28;20880;-77
2022/03/24 10:52:46;;;;;;;55.40;42.85;;;;;;;;;;5105786;28;20062;-77
2022/03/24 10:55:13;;;;;;;58.33;45.03;;;;;;;;;;5102308;28;20052;-77
2022/03/24 10:57:42;;;;;;;58.72;44.85;;;;;;;;;;5104999;28;20047;-77
2022/03/24 11:00:11;;;;;;;57.80;42.58;;;;;;;;;;5101330;28;20043;-77
2022/03/24 11:02:40;;;;;;;58.20;42.78;;;;;;;;;;5097855;28;20048;-77
2022/03/24 11:05:12;;;;;;;54.75;42.58;;;;;;;;;;5099966;28;20926;-77
2022/03/24 11:07:40;;;;;;;54.50;42.15;;;;;;;;;;5099975;28;20052;-77
2022/03/24 11:10:11;;;;;;;61.75;45.55;;;;;;;;;;5101532;28;20048;-77
2022/03/24 11:12:39;;;;;;;54.85;41.08;;;;;;;;;;5096396;28;20101;-77
2022/03/24 11:15:09;;;;;;;52.22;40.53;;;;;;;;;;5104982;28;20051;-77
2022/03/24 11:17:38;;;;;;;55.63;41.42;;;;;;;;;;5099570;27;20058;-77
2022/03/24 11:20:09;;;;;;;49.58;38.83;;;;;;;;;;5103173;28;20043;-77
2022/03/24 11:22:43;;;;;;;53.47;42.20;;;;;;;;;;5104527;28;20044;-77
2022/03/24 11:25:11;;;;;;;51.90;39.50;;;;;;;;;;5104889;28;20051;-77
2022/03/24 11:27:39;;;;;;;55.83;40.92;;;;;;;;;;5104581;28;20447;-77
2022/03/24 11:30:07;;;;;;;51.55;39.40;;;;;;;;;;5104324;28;20105;-77
2022/03/24 11:32:37;;;;;;;51.03;37.88;;;;;;;;;;5101970;28;20051;-77
2022/03/24 11:35:05;;;;;;;49.28;38.40;;;;;;;;;;5090993;28;20082;-77
2022/03/24 11:37:33;;;;;;;45.55;36.17;;;;;;;;;;5097267;28;20466;-77
2022/03/24 11:40:07;;;;;;;45.95;35.20;;;;;;;;;;5101355;28;20439;-77
2022/03/24 11:42:36;;;;;;;44.67;35.97;;;;;;;;;;5099755;28;20055;-77
2022/03/24 11:45:05;;;;;;;52.60;39.35;;;;;;;;;;5093775;28;20055;-77
2022/03/24 11:47:52;;;;;;;48.28;36.88;;;;;;;;;;5093929;28;20058;-77
2022/03/24 11:50:19;;;;;;;47.25;38.60;;;;;;;;;;5100450;27;20043;-77
2022/03/24 11:52:48;;;;;;;53.42;39.08;;;;;;;;;;5095242;28;20501;-77
2022/03/24 11:55:16;;;;;;;50.55;38.03;;;;;;;;;;5102560;28;20055;-77
2022/03/24 11:57:43;;;;;;;60.45;40.15;;;;;;;;;;5103929;28;20663;-77
2022/03/24 12:00:30;;;;;;;50.17;38.75;;;;;;;;;;5103529;28;20379;-77
2022/03/24 12:03:02;;;;;;;50.67;38.22;;;;;;;;;;5099851;28;20055;-77
2022/03/24 12:05:44;;;;;;;49.92;38.90;;;;;;;;;;5098286;28;20478;-77
2022/03/24 12:08:11;;;;;;;54.60;39.05;;;;;;;;;;5096441;28;20055;-77
2022/03/24 12:10:38;;;;;;;47.22;37.88;;;;;;;;;;5093549;28;20129;-78
2022/03/24 12:13:21;;;;;;;49.88;35.65;;;;;;;;;;5096666;28;20117;-78
2022/03/24 12:16:03;;;;;;;55.67;39.50;;;;;;;;;;5099208;28;20475;-76
2022/03/24 12:18:42;;;;;;;55.35;39.75;;;;;;;;;;5094871;28;20063;-76
2022/03/24 12:21:09;;;;;;;52.38;38.75;;;;;;;;;;5104196;28;20065;-75
2022/03/24 12:23:51;;;;;;;50.35;39.28;;;;;;;;;;5104146;28;20108;-75
2022/03/24 12:26:18;;;;;;;48.90;36.85;;;;;;;;;;5089836;28;20529;-75
2022/03/24 12:28:45;;;;;;;49.40;38.38;;;;;;;;;;5104182;28;20052;-75
2022/03/24 12:31:15;;;;;;;48.53;35.67;;;;;;;;;;5102633;28;20056;-75
2022/03/24 12:33:47;;;;;;;49.13;34.85;;;;;;;;;;5102247;28;20400;-77
2022/03/24 12:36:15;;;;;;;48.28;37.95;;;;;;;;;;5104107;28;20144;-75
2022/03/24 12:38:44;;;;;;;49.25;37.95;;;;;;;;;;5100734;28;20104;-75
2022/03/24 12:41:22;;;;;;;48.10;35.30;;;;;;;;;;5101553;28;20047;-75
2022/03/24 12:43:53;;;;;;;46.97;38.10;;;;;;;;;;5103683;28;20082;-75
2022/03/24 12:46:32;;;;;;;49.28;38.65;;;;;;;;;;5103037;28;20119;-75
2022/03/24 12:49:06;;;;;;;48.95;40.28;;;;;;;;;;5099788;28;20056;-75
2022/03/24 12:51:34;;;;;;;53.22;40.80;;;;;;;;;;5096994;28;20047;-75
2022/03/24 12:54:02;;;;;;;49.72;41.40;;;;;;;;;;5101090;28;20059;-75
2022/03/24 12:56:31;;;;;;;46.03;37.80;;;;;;;;;;5102035;28;20047;-75
2022/03/24 12:59:01;;;;;;;52.00;41.67;;;;;;;;;;5104693;28;20047;-75
2022/03/24 13:01:28;;;;;;;49.85;39.22;;;;;;;;;;5104025;28;20055;-76
2022/03/24 13:03:59;;;;;;;45.22;38.13;;;;;;;;;;5108478;27;20074;-74
2022/03/24 13:06:28;;;;;;;47.70;37.03;;;;;;;;;;5104981;28;20479;-73
2022/03/24 13:09:18;;;;;;;45.42;38.25;;;;;;;;;;5106136;28;20044;-75
2022/03/24 13:11:49;;;;;;;42.88;35.58;;;;;;;;;;5106921;28;20066;-76
2022/03/24 13:14:18;;;;;;;42.72;33.70;;;;;;;;;;5107490;28;20047;-72
2022/03/24 13:16:58;;;;;;;41.40;31.17;;;;;;;;;;5107442;28;20077;-71
2022/03/24 13:19:26;;;;;;;45.10;32.38;;;;;;;;;;5106592;28;20424;-71
2022/03/24 13:21:54;;;;;;;42.63;34.83;;;;;;;;;;5107693;28;20055;-71
2022/03/24 13:24:22;;;;;;;44.25;34.90;;;;;;;;;;5106812;28;20063;-71
2022/03/24 13:26:59;;;;;;;41.50;33.38;;;;;;;;;;5107245;28;20108;-73
2022/03/24 13:29:36;;;;;;;43.25;36.47;;;;;;;;;;5106465;28;20486;-71
2022/03/24 13:32:10;;;;;;;41.47;33.15;;;;;;;;;;5107345;28;20047;-71
2022/03/24 13:34:38;;;;;;;44.55;32.33;;;;;;;;;;5119284;27;20043;-71
2022/03/24 13:37:16;;;;;;;39.80;32.97;;;;;;;;;;5103821;28;20055;-71
2022/03/24 13:39:47;;;;;;;38.90;32.17;;;;;;;;;;5106474;28;20048;-71
2022/03/24 13:42:15;;;;;;;36.22;31.33;;;;;;;;;;5105533;27;20062;-72
2022/03/24 13:44:44;;;;;;;42.40;33.80;;;;;;;;;;5106505;28;20056;-71
2022/03/24 13:47:11;;;;;;;44.28;37.20;;;;;;;;;;5105226;28;20132;-71
2022/03/24 13:49:39;;;;;;;39.95;35.65;;;;;;;;;;5101064;28;20047;-71
2022/03/24 13:52:07;;;;;;;45.85;37.35;;;;;;;;;;5103018;28;20052;-71
2022/03/24 13:54:35;;;;;;;43.88;36.60;;;;;;;;;;5100555;28;20112;-74
2022/03/24 13:57:03;;;;;;;40.67;35.30;;;;;;;;;;5104837;28;20051;-74
2022/03/24 13:59:33;;;;;;;44.60;39.70;;;;;;;;;;5097937;28;20047;-72
2022/03/24 14:02:00;;;;;;;42.60;36.65;;;;;;;;;;5104618;28;20142;-72
2022/03/24 14:04:27;;;;;;;45.08;34.83;;;;;;;;;;5106755;28;20101;-72
2022/03/24 14:07:05;;;;;;;42.30;35.20;;;;;;;;;;5104600;28;20051;-72
2022/03/24 14:09:32;;;;;;;42.75;37.83;;;;;;;;;;5106465;28;20047;-71
2022/03/24 14:12:05;;;;;;;41.45;35.38;;;;;;;;;;5105601;28;20551;-71
2022/03/24 14:14:32;;;;;;;40.90;35.10;;;;;;;;;;5105426;28;20059;-71
2022/03/24 14:16:59;;;;;;;38.67;32.65;;;;;;;;;;5106068;28;20395;-71
2022/03/24 14:19:27;;;;;;;35.03;28.90;;;;;;;;;;5112461;27;20050;-71
2022/03/24 14:21:56;;;;;;;37.08;32.55;;;;;;;;;;5106125;28;20104;-71